Terminal Aerodrome Forecast
Issued by NWS Omaha/Valley, NE

Home | Current Version | Previous Version | Graphics & Text | Print | Product List | Glossary On
Versions: 1 2 3 4 5 6 7 8 9 10 11 12 13 14 15 16 17 18 19 20 21 22 23 24 25 26 27 28 29 30 31 32 33 34 35
000
FTUS43 KOAX 270540
TAFOFK
TAF
KOFK 270540Z 2706/2806 05015G23KT P6SM -RA OVC015
     FM270800 04014G22KT 4SM -RA BR OVC012
     FM271100 06018G25KT 3SM -RA BR OVC007
     FM272200 04015G25KT 4SM -RA BR OVC015
     FM280100 36013G20KT 4SM -RA BR OVC015=

USA.gov is the U.S. government's official web portal to all federal, state and local government web resources and services.